createdAt,value
2018-06-21T08:14:16.368Z,4.60
2018-06-21T08:16:45.206Z,4.87
2018-06-21T08:19:13.534Z,4.60
2018-06-21T08:21:41.882Z,4.37
2018-06-21T08:24:10.274Z,4.53
2018-06-21T08:26:38.613Z,4.73
2018-06-21T08:29:06.960Z,4.60
2018-06-21T08:31:35.387Z,4.20
2018-06-21T08:34:03.842Z,4.63
2018-06-21T08:36:32.173Z,4.73
2018-06-21T08:39:00.540Z,4.60
2018-06-21T08:41:32.598Z,4.70
2018-06-21T08:44:00.947Z,4.47
2018-06-21T08:46:29.600Z,4.20
2018-06-21T08:48:57.956Z,4.80
2018-06-21T08:51:26.315Z,4.80
2018-06-21T08:53:54.694Z,5.00
2018-06-21T08:56:23.094Z,4.83
2018-06-21T08:58:51.829Z,4.70
2018-06-21T09:01:20.581Z,5.00
2018-06-21T09:03:49.031Z,5.30
2018-06-21T09:06:17.362Z,5.27
2018-06-21T09:08:45.680Z,5.50
2018-06-21T09:11:14.082Z,5.30
2018-06-21T09:13:53.552Z,5.10
2018-06-21T09:16:22.239Z,5.47
2018-06-21T09:18:50.609Z,5.13
2018-06-21T09:21:18.984Z,5.20
2018-06-21T09:23:47.354Z,5.10
2018-06-21T09:26:15.693Z,4.93
2018-06-21T09:28:44.047Z,5.00
2018-06-21T09:31:12.454Z,5.07
2018-06-21T09:35:01.760Z,4.73
2018-06-21T09:37:35.461Z,5.00
2018-06-21T09:40:09.156Z,5.30
2018-06-21T09:42:42.967Z,5.53
2018-06-21T09:45:11.402Z,5.40
2018-06-21T09:47:44.983Z,5.13
2018-06-21T09:50:16.927Z,5.00
2018-06-21T09:52:45.956Z,5.10
2018-06-21T09:55:14.299Z,5.00
2018-06-21T09:57:42.668Z,4.93
2018-06-21T10:00:15.174Z,5.10
2018-06-21T10:02:43.485Z,5.03
2018-06-21T10:05:11.832Z,5.17
2018-06-21T10:07:40.159Z,5.17
2018-06-21T10:10:08.600Z,4.90
2018-06-21T10:15:20.942Z,5.57
2018-06-21T10:17:49.614Z,5.03
2018-06-21T10:20:19.967Z,5.87
2018-06-21T10:23:59.360Z,5.60
2018-06-21T10:26:27.655Z,5.73
2018-06-21T10:28:55.977Z,5.57
2018-06-21T10:31:24.397Z,5.50
2018-06-21T10:33:52.728Z,5.50
2018-06-21T10:36:21.201Z,5.57
2018-06-21T10:38:49.533Z,5.27
2018-06-21T10:43:32.959Z,5.37
2018-06-21T10:46:01.279Z,5.07
2018-06-21T10:48:29.623Z,4.97
2018-06-21T10:50:58.096Z,4.77
2018-06-21T10:53:26.550Z,4.80
2018-06-21T10:55:54.862Z,4.80
2018-06-21T10:58:23.662Z,4.47
2018-06-21T11:00:52.044Z,4.93
2018-06-21T11:03:20.408Z,4.40
2018-06-21T11:05:48.958Z,4.70
2018-06-21T11:08:17.265Z,4.70
2018-06-21T11:10:45.586Z,4.80
2018-06-21T11:13:13.919Z,4.60
2018-06-21T11:15:42.251Z,4.93
2018-06-21T11:18:10.592Z,4.47
2018-06-21T11:20:38.932Z,4.73
2018-06-21T11:23:07.293Z,4.97
2018-06-21T11:25:35.639Z,4.73
2018-06-21T11:28:04.035Z,4.80
2018-06-21T11:30:32.327Z,4.90
2018-06-21T11:33:00.767Z,4.60
2018-06-21T11:35:29.451Z,4.50
2018-06-21T11:37:58.276Z,4.73
2018-06-21T11:40:26.900Z,4.40
2018-06-21T11:42:56.149Z,4.90
2018-06-21T11:45:24.468Z,5.00
2018-06-21T11:47:52.811Z,4.80
2018-06-21T11:50:21.606Z,4.50
2018-06-21T11:52:49.972Z,4.70
2018-06-21T11:55:18.317Z,5.53
2018-06-21T11:57:46.671Z,5.00
2018-06-21T12:00:14.994Z,4.80
2018-06-21T12:02:43.335Z,5.07
2018-06-21T12:05:11.658Z,4.80
2018-06-21T12:07:39.984Z,4.57
2018-06-21T12:10:08.310Z,4.63
2018-06-21T12:12:36.671Z,6.80
2018-06-21T12:15:05.022Z,6.40
2018-06-21T12:17:33.321Z,5.73
2018-06-21T12:20:01.627Z,5.90
2018-06-21T12:22:29.986Z,5.37
2018-06-21T12:24:58.282Z,5.23
2018-06-21T12:27:27.111Z,4.47
2018-06-21T12:29:55.450Z,4.70
2018-06-21T12:32:23.804Z,4.43
2018-06-21T12:34:52.204Z,4.67
2018-06-21T12:37:20.270Z,4.13
2018-06-21T12:39:48.445Z,4.50
2018-06-21T12:42:17.317Z,4.33
2018-06-21T12:44:45.637Z,4.13
2018-06-21T12:47:14.383Z,4.10
2018-06-21T12:49:43.299Z,3.90
2018-06-21T12:52:11.622Z,4.10
2018-06-21T12:54:39.987Z,4.10
2018-06-21T12:57:08.348Z,4.03
2018-06-21T12:59:36.838Z,4.10
2018-06-21T13:02:05.160Z,4.00
2018-06-21T13:04:33.487Z,4.07
2018-06-21T13:07:01.820Z,4.30
2018-06-21T13:09:41.650Z,4.33
2018-06-21T13:12:26.004Z,4.20
2018-06-21T13:14:54.774Z,4.20
2018-06-21T13:17:22.852Z,4.40
2018-06-21T13:19:50.937Z,4.40
2018-06-21T13:22:19.428Z,4.30
2018-06-21T13:24:47.747Z,4.50
2018-06-21T13:27:16.096Z,4.27
2018-06-21T13:29:44.505Z,4.40
2018-06-21T13:32:12.833Z,4.73
2018-06-21T13:34:41.211Z,4.27
2018-06-21T13:37:10.096Z,4.20
2018-06-21T13:39:38.390Z,4.30
2018-06-21T13:42:06.710Z,4.10
2018-06-21T13:44:34.790Z,5.00
2018-06-21T13:47:03.439Z,5.53
2018-06-21T13:49:32.625Z,5.17
2018-06-21T13:52:01.016Z,4.80
2018-06-21T13:54:29.355Z,4.50
2018-06-21T13:56:57.692Z,5.00
2018-06-21T13:59:26.038Z,4.80
2018-06-21T14:01:54.407Z,4.73
2018-06-21T14:04:22.729Z,5.40
2018-06-21T14:06:51.234Z,5.20
2018-06-21T14:09:19.606Z,4.83
2018-06-21T14:11:47.950Z,4.80
2018-06-21T14:14:16.102Z,5.03
2018-06-21T14:16:44.524Z,4.63
2018-06-21T14:19:12.908Z,5.40
2018-06-21T14:21:41.222Z,5.20
2018-06-21T14:24:11.937Z,5.33
2018-06-21T14:26:40.719Z,4.93
2018-06-21T14:29:10.215Z,5.47
2018-06-21T14:31:38.612Z,5.47
2018-06-21T14:34:07.022Z,5.40
2018-06-21T14:36:35.874Z,5.50
2018-06-21T14:39:06.392Z,5.20
2018-06-21T14:41:34.714Z,5.70
2018-06-21T14:44:02.775Z,5.23
2018-06-21T14:46:30.922Z,5.00
2018-06-21T14:48:59.362Z,5.10
2018-06-21T14:51:27.385Z,5.07
2018-06-21T14:53:55.449Z,4.80
2018-06-21T14:56:23.800Z,5.20
2018-06-21T14:58:52.158Z,5.17
2018-06-21T15:01:20.470Z,5.57
2018-06-21T15:03:48.838Z,5.13
2018-06-21T15:06:17.203Z,5.20
2018-06-21T15:08:46.159Z,4.97
2018-06-21T15:11:14.692Z,4.70
2018-06-21T15:13:47.023Z,4.90
2018-06-21T15:16:16.550Z,4.90
2018-06-21T15:18:45.151Z,4.67
2018-06-21T15:21:13.536Z,4.93
2018-06-21T15:23:41.903Z,4.60
2018-06-21T15:26:10.250Z,4.80
2018-06-21T15:28:38.611Z,4.63
2018-06-21T15:31:06.992Z,4.50
2018-06-21T15:33:35.599Z,4.50
2018-06-21T15:36:04.230Z,4.80
2018-06-21T15:38:32.623Z,4.40
2018-06-21T15:41:01.009Z,5.07
2018-06-21T15:43:29.620Z,4.87
2018-06-21T15:45:58.431Z,4.70
2018-06-21T15:48:26.960Z,4.40
2018-06-21T15:50:55.317Z,4.60
2018-06-21T15:53:23.654Z,4.77
2018-06-21T15:55:51.710Z,5.07
2018-06-21T15:58:19.764Z,5.60
2018-06-21T16:00:48.115Z,5.30
2018-06-21T16:03:17.244Z,4.73
